EST,Max TemperatureF,Mean TemperatureF,Min TemperatureF,Max Dew PointF,MeanDew PointF,Min DewpointF,Max Humidity, Mean Humidity, Min Humidity, Max Sea Level PressureIn, Mean Sea Level PressureIn, Min Sea Level PressureIn, Max VisibilityMiles, Mean VisibilityMiles, Min VisibilityMiles, Max Wind SpeedMPH, Mean Wind SpeedMPH, Max Gust SpeedMPH,PrecipitationIn, CloudCover, Events, WindDirDegrees
2013-1-1,48,46,44,49,45,33,100,93,58,30.11,30.03,29.95,10,5,2,7,4,,0.52,8,Rain,204
2013-1-2,55,52,48,50,48,44,100,92,69,30.13,30.00,29.89,10,6,0,7,1,,0.06,7,Fog-Rain,50
2013-1-3,50,44,39,46,43,30,100,90,68,30.30,30.16,30.09,10,9,2,9,3,,0.01,7,,69
2013-1-4,53,40,28,32,26,19,96,63,31,30.36,30.31,30.24,10,10,10,12,3,,0.00,1,,282
2013-1-5,48,36,25,39,27,22,89,67,36,30.41,30.33,30.26,10,10,10,6,1,,0.01,2,Rain,241
2013-1-6,54,46,39,40,36,29,89,71,57,30.25,30.17,30.07,10,10,10,15,8,,0.00,5,Rain,245
2013-1-7,54,40,26,32,28,24,96,68,35,30.41,30.34,30.22,10,10,10,10,3,,0.00,0,,82
2013-1-8,54,42,30,39,35,28,89,67,51,30.45,30.38,30.35,10,10,10,7,3,,0.00,6,,49
2013-1-9,64,57,50,53,46,40,90,72,56,30.44,30.39,30.36,10,10,5,7,2,,0.00,5,,3
2013-1-10,71,60,48,58,53,49,100,78,51,30.45,30.39,30.31,10,9,4,13,4,20,0.03,4,Rain,86
2013-1-11,66,60,53,64,58,53,100,98,93,30.30,30.20,30.14,10,6,2,12,6,,0.10,8,Rain,101
2013-1-12,71,62,53,63,56,53,100,96,66,30.18,30.14,30.08,10,3,0,8,1,,0.01,4,Fog,208
2013-1-13,72,64,57,62,59,57,100,88,68,30.15,30.09,30.04,10,9,5,12,3,,0.00,6,,210
2013-1-14,69,65,61,65,63,61,100,94,84,30.11,30.08,30.04,10,9,5,10,5,,0.14,7,Rain,202
2013-1-15,63,56,48,63,58,48,100,98,93,30.12,30.07,30.01,10,7,0,10,3,,0.08,8,Fog-Rain,84
2013-1-16,53,50,46,54,49,46,100,98,93,30.03,29.99,29.95,10,7,2,12,5,,0.29,8,Rain,54
2013-1-17,54,48,39,54,49,38,100,98,87,30.22,29.88,29.71,10,5,1,20,6,24,2.43,8,Rain,41
2013-1-18,54,42,30,37,27,17,97,61,25,30.50,30.43,30.25,10,10,10,6,2,,0.00,0,,358
2013-1-19,53,40,27,32,27,24,92,67,32,30.49,30.37,30.21,10,10,10,8,2,,0.00,0,,213
2013-1-20,64,48,33,36,31,29,92,60,28,30.20,30.12,30.04,10,10,10,13,4,,0.00,0,,247
2013-1-21,61,44,28,36,26,16,96,56,29,30.09,30.06,29.99,10,10,10,18,5,28,0.00,0,,277
2013-1-22,46,38,30,17,13,10,56,36,23,30.26,30.18,30.08,10,10,10,14,10,25,0.00,1,,270
2013-1-23,52,40,28,29,22,12,63,49,37,30.35,30.25,30.12,10,10,10,16,7,21,0.00,0,,252
2013-1-24,57,44,30,38,23,5,71,43,17,30.46,30.20,30.05,10,10,10,22,12,26,0.00,0,,290
2013-1-25,34,30,26,29,18,6,85,66,38,30.49,30.29,30.12,10,10,9,10,6,,0.02,7,Rain,127
2013-1-26,55,42,28,36,31,27,100,75,39,30.32,30.19,30.12,10,8,4,7,3,,0.00,1,,75
2013-1-27,48,40,32,31,30,29,92,69,46,30.55,30.47,30.32,10,9,6,13,7,,0.00,3,,60
2013-1-28,48,44,41,45,39,30,100,82,58,30.45,30.35,30.28,10,7,0,7,2,,0.00,5,Fog,218
2013-1-29,71,54,37,60,46,37,100,91,59,30.28,30.21,30.00,10,4,0,18,2,23,0.00,6,Fog,195
2013-1-30,70,59,48,65,58,45,100,89,73,29.99,29.71,29.51,10,8,1,33,15,44,1.23,8,Rain-Thunderstorm,202
2013-1-31,50,44,37,40,25,19,79,50,29,30.12,29.96,29.67,10,10,10,22,17,38,0.00,0,,264